| Date | Time | Temp. (oF) | Dew Point (oF) | Rel. Hum. (%) | Press. (in.) | Wind Dir. | Wind Speed (mph) | Hourly Rainfall (in.) |
|
|---|---|---|---|---|---|---|---|---|---|
| 1 | 10/08 | 00:00 | 45 | 45 | 100 | 30.18 | WSW | 4 | 0.00 |
| 2 | 10/07 | 23:00 | 46 | 45 | 100 | 30.17 | SW | 3 | 0.00 |
| 3 | 10/07 | 22:00 | 47 | 46 | 100 | 30.16 | WSW | 4 | 0.00 |
| 4 | 10/07 | 21:00 | 48 | 48 | 100 | 30.15 | SSW | 0 | 0.00 |
| 5 | 10/07 | 20:00 | 48 | 48 | 100 | 30.13 | S | 3 | 0.02 |
| 6 | 10/07 | 19:00 | 48 | 48 | 100 | 30.12 | WSW | 2 | 0.02 |
| 7 | 10/07 | 18:00 | 50 | 48 | 96 | 30.09 | WSW | 1 | 0.00 |
| 8 | 10/07 | 17:00 | 51 | 49 | 93 | 30.04 | SSE | 0 | 0.00 |
| 9 | 10/07 | 16:00 | 52 | 46 | 83 | 30.05 | SW | 2 | 0.00 |
| 10 | 10/07 | 15:00 | 51 | 45 | 81 | 30.08 | SSE | 5 | 0.00 |
| 11 | 10/07 | 14:00 | 52 | 46 | 81 | 30.09 | SSE | 5 | 0.00 |
| 12 | 10/07 | 13:00 | 51 | 46 | 85 | 30.12 | SSE | 7 | 0.00 |
| 13 | 10/07 | 12:00 | 50 | 48 | 94 | 30.13 | SSE | 2 | 0.00 |
| 14 | 10/07 | 11:00 | 50 | 50 | 100 | 30.14 | SSE | 2 | 0.03 |
| 15 | 10/07 | 10:00 | 50 | 47 | 92 | 30.16 | W | 3 | 0.00 |
| 16 | 10/07 | 09:00 | 48 | 48 | 100 | 30.14 | SSE | 1 | 0.00 |
| 17 | 10/07 | 08:00 | 47 | 46 | 100 | 30.13 | SSE | 0 | 0.00 |
| 18 | 10/07 | 07:00 | 46 | 45 | 100 | 30.11 | NNE | 0 | 0.00 |
| 19 | 10/07 | 06:00 | 45 | 45 | 100 | 30.10 | S | 0 | 0.00 |
| 20 | 10/07 | 05:00 | 43 | 42 | 100 | 30.09 | S | 2 | 0.00 |
| 21 | 10/07 | 04:00 | 45 | 43 | 93 | 30.08 | SSE | 2 | 0.00 |
| 22 | 10/07 | 03:00 | 47 | 43 | 86 | 30.06 | N | 4 | 0.00 |
| 23 | 10/07 | 02:00 | 49 | 43 | 80 | 30.07 | N | 0 | 0.00 |
| 24 | 10/07 | 01:00 | 51 | 42 | 74 | 30.07 | WNW | 5 | 0.00 |